createdAt,value
2023-04-20T00:00:31.023Z,57.41
2023-04-20T00:02:58.839Z,57.56
2023-04-20T00:05:27.600Z,57.70
2023-04-20T00:07:56.314Z,58.21
2023-04-20T00:10:22.936Z,58.34
2023-04-20T00:12:49.604Z,58.25
2023-04-20T00:15:16.156Z,58.75
2023-04-20T00:17:43.626Z,58.98
2023-04-20T00:20:10.977Z,59.03
2023-04-20T00:22:38.614Z,59.01
2023-04-20T00:25:05.748Z,59.47
2023-04-20T00:27:33.358Z,59.67
2023-04-20T00:30:00.985Z,59.63
2023-04-20T00:32:28.515Z,59.96
2023-04-20T00:34:55.311Z,60.34
2023-04-20T00:37:21.892Z,60.47
2023-04-20T00:39:48.516Z,60.64
2023-04-20T00:42:15.125Z,60.50
2023-04-20T00:44:42.230Z,60.70
2023-04-20T00:47:08.842Z,61.05
2023-04-20T00:49:35.677Z,61.07
2023-04-20T00:52:02.332Z,61.12
2023-04-20T00:54:30.533Z,60.77
2023-04-20T00:56:58.214Z,61.18
2023-04-20T00:59:25.090Z,61.58
2023-04-20T01:01:51.900Z,61.83
2023-04-20T01:04:19.126Z,62.27
2023-04-20T01:06:46.142Z,61.75
2023-04-20T01:09:16.146Z,62.11
2023-04-20T01:11:46.126Z,62.28
2023-04-20T01:14:13.443Z,62.55
2023-04-20T01:16:40.081Z,62.58
2023-04-20T01:19:06.801Z,62.52
2023-04-20T01:21:33.591Z,62.59
2023-04-20T01:24:00.330Z,62.61
2023-04-20T01:26:28.064Z,62.84
2023-04-20T01:28:56.173Z,62.92
2023-04-20T01:31:22.930Z,63.23
2023-04-20T01:33:50.140Z,63.26
2023-04-20T01:36:16.819Z,63.44
2023-04-20T01:38:46.258Z,63.76
2023-04-20T01:41:16.863Z,64.02
2023-04-20T01:43:43.984Z,64.09
2023-04-20T01:46:10.676Z,64.37
2023-04-20T01:48:37.514Z,64.26
2023-04-20T01:51:04.391Z,64.97
2023-04-20T01:53:31.152Z,64.74
2023-04-20T01:55:59.662Z,65.52
2023-04-20T01:58:26.390Z,64.90
2023-04-20T02:00:53.057Z,65.11
2023-04-20T02:03:19.843Z,65.52
2023-04-20T02:05:46.592Z,65.17
2023-04-20T02:08:16.288Z,65.29
2023-04-20T02:10:46.101Z,65.23
2023-04-20T02:13:15.472Z,65.14
2023-04-20T02:15:43.810Z,65.18
2023-04-20T02:18:10.773Z,65.15
2023-04-20T02:20:37.478Z,65.29
2023-04-20T02:23:04.120Z,65.30
2023-04-20T02:25:31.023Z,65.56
2023-04-20T02:27:57.944Z,66.18
2023-04-20T02:30:24.848Z,66.03
2023-04-20T02:32:51.489Z,66.12
2023-04-20T02:35:18.589Z,66.03
2023-04-20T02:37:46.621Z,66.36
2023-04-20T02:40:16.082Z,66.12
2023-04-20T02:42:45.825Z,66.27
2023-04-20T02:45:14.064Z,66.68
2023-04-20T02:47:41.604Z,66.26
2023-04-20T02:50:09.594Z,66.58
2023-04-20T02:52:36.255Z,66.50
2023-04-20T02:55:03.143Z,66.46
2023-04-20T02:57:29.898Z,66.68
2023-04-20T02:59:56.786Z,66.79
2023-04-20T03:02:23.773Z,66.40
2023-04-20T03:04:50.576Z,67.09
2023-04-20T03:07:18.436Z,67.05
2023-04-20T03:09:45.094Z,67.51
2023-04-20T03:12:12.825Z,67.27
2023-04-20T03:14:39.367Z,67.06
2023-04-20T03:17:06.686Z,67.27
2023-04-20T03:19:33.336Z,67.29
2023-04-20T03:22:00.570Z,67.76
2023-04-20T03:24:27.313Z,67.66
2023-04-20T03:26:53.938Z,67.84
2023-04-20T03:29:20.796Z,68.10
2023-04-20T03:31:47.351Z,68.20
2023-04-20T03:34:14.197Z,67.90
2023-04-20T03:36:41.098Z,67.73
2023-04-20T03:39:08.139Z,68.32
2023-04-20T03:41:34.790Z,67.80
2023-04-20T03:44:01.387Z,68.31
2023-04-20T03:46:28.456Z,68.96
2023-04-20T03:48:55.238Z,68.98
2023-04-20T03:51:21.836Z,68.12
2023-04-20T03:53:48.433Z,68.20
2023-04-20T03:56:18.253Z,68.44
2023-04-20T03:58:45.129Z,68.39
2023-04-20T04:01:14.465Z,68.68
2023-04-20T04:03:41.413Z,69.17
2023-04-20T04:06:09.496Z,69.28
2023-04-20T04:08:36.517Z,69.15
2023-04-20T04:11:04.648Z,69.58
2023-04-20T04:13:33.780Z,69.65
2023-04-20T04:16:01.158Z,69.38
2023-04-20T04:18:32.309Z,69.54
2023-04-20T04:20:59.232Z,69.45
2023-04-20T04:23:26.355Z,69.86
2023-04-20T04:25:52.990Z,69.73
2023-04-20T04:28:19.736Z,70.31
2023-04-20T04:30:49.288Z,69.51
2023-04-20T04:33:19.016Z,70.45
2023-04-20T04:35:46.253Z,70.44
2023-04-20T04:38:16.329Z,70.62
2023-04-20T04:40:46.048Z,70.29
2023-04-20T04:43:15.446Z,70.26
2023-04-20T04:45:44.415Z,70.45
2023-04-20T04:48:14.909Z,70.75
2023-04-20T04:50:41.667Z,70.64
2023-04-20T04:53:08.469Z,70.88
2023-04-20T04:55:35.060Z,70.84
2023-04-20T04:58:02.436Z,71.06
2023-04-20T05:00:29.517Z,70.69
2023-04-20T05:02:56.352Z,70.92
2023-04-20T05:05:23.186Z,70.85
2023-04-20T05:07:49.789Z,70.88
2023-04-20T05:10:16.659Z,70.67
2023-04-20T05:12:47.447Z,70.94
2023-04-20T05:15:14.464Z,71.15
2023-04-20T05:17:41.122Z,70.65
2023-04-20T05:20:10.820Z,70.90
2023-04-20T05:22:38.007Z,70.89
2023-04-20T05:25:11.586Z,71.18
2023-04-20T05:27:39.751Z,71.04
2023-04-20T05:30:19.665Z,71.10
2023-04-20T05:32:51.557Z,71.42
2023-04-20T05:35:19.050Z,71.50
2023-04-20T05:37:47.717Z,71.94
2023-04-20T05:40:15.999Z,71.67
2023-04-20T05:42:43.610Z,71.86
2023-04-20T05:45:11.272Z,72.38
2023-04-20T05:47:39.084Z,71.73
2023-04-20T05:50:06.515Z,71.43
2023-04-20T05:52:33.507Z,72.12
2023-04-20T05:55:00.700Z,72.05
2023-04-20T05:57:27.363Z,71.64
2023-04-20T05:59:56.055Z,71.65
2023-04-20T06:02:23.078Z,71.44
2023-04-20T06:04:50.250Z,71.15
2023-04-20T06:07:16.992Z,70.87
2023-04-20T06:09:46.878Z,71.25
2023-04-20T06:12:16.500Z,70.85
2023-04-20T06:14:44.884Z,70.75
2023-04-20T06:17:11.560Z,71.00
2023-04-20T06:19:38.207Z,71.22
2023-04-20T06:22:08.456Z,70.66
2023-04-20T06:24:35.635Z,71.02
2023-04-20T06:27:02.768Z,70.38
2023-04-20T06:29:29.545Z,70.72
2023-04-20T06:31:57.312Z,70.58
2023-04-20T06:34:24.040Z,70.30
2023-04-20T06:36:50.847Z,70.61
2023-04-20T06:39:17.768Z,70.40
2023-04-20T06:41:44.998Z,70.92
2023-04-20T06:44:12.990Z,70.38
2023-04-20T06:46:46.961Z,70.13
2023-04-20T06:49:16.773Z,70.77
2023-04-20T06:52:02.308Z,71.03
2023-04-20T06:54:39.673Z,70.72
2023-04-20T06:57:07.446Z,70.78
2023-04-20T06:59:34.457Z,70.69
2023-04-20T07:02:01.612Z,71.40
2023-04-20T07:04:28.467Z,71.35
2023-04-20T07:06:56.629Z,71.61
2023-04-20T07:09:27.042Z,71.79
2023-04-20T07:11:53.785Z,71.26
2023-04-20T07:14:20.483Z,71.75
2023-04-20T07:16:56.300Z,71.32
2023-04-20T07:19:23.488Z,71.70
2023-04-20T07:21:51.340Z,71.85
2023-04-20T07:24:18.079Z,72.56
2023-04-20T07:26:47.918Z,71.73
2023-04-20T07:29:17.575Z,72.26
2023-04-20T07:31:45.060Z,72.25
2023-04-20T07:34:14.843Z,72.17
2023-04-20T07:36:41.598Z,72.38
2023-04-20T07:39:14.895Z,72.24
2023-04-20T07:41:41.548Z,72.49
2023-04-20T07:44:10.219Z,72.28
2023-04-20T07:46:40.138Z,72.85
2023-04-20T07:49:17.500Z,71.87
2023-04-20T07:51:45.510Z,72.16
2023-04-20T07:54:14.296Z,71.97
2023-04-20T07:56:40.939Z,71.51
2023-04-20T07:59:10.363Z,71.65
2023-04-20T08:01:37.380Z,71.53
2023-04-20T08:04:04.455Z,70.57
2023-04-20T08:06:31.959Z,70.80
2023-04-20T08:09:03.056Z,70.66
2023-04-20T08:11:29.716Z,69.06
2023-04-20T08:13:58.268Z,67.52
2023-04-20T08:16:25.696Z,66.12
2023-04-20T08:18:52.695Z,66.02
2023-04-20T08:21:25.547Z,65.79
2023-04-20T08:23:52.950Z,65.26
2023-04-20T08:26:20.571Z,64.78
2023-04-20T08:28:47.149Z,63.88
2023-04-20T08:31:14.801Z,63.78
2023-04-20T08:33:42.740Z,63.76
2023-04-20T08:36:09.639Z,63.86
2023-04-20T08:38:37.821Z,64.86
2023-04-20T08:41:04.653Z,65.21
2023-04-20T08:43:33.442Z,64.63
2023-04-20T08:46:02.879Z,65.57
2023-04-20T08:48:39.763Z,64.80
2023-04-20T08:51:06.620Z,65.16
2023-04-20T08:53:35.652Z,64.89
2023-04-20T08:56:02.250Z,65.09
2023-04-20T08:58:33.935Z,64.32
2023-04-20T09:01:01.363Z,65.01
2023-04-20T09:03:49.854Z,64.89
2023-04-20T09:06:18.248Z,63.46
2023-04-20T09:08:46.706Z,63.74
2023-04-20T09:11:24.483Z,62.80
2023-04-20T09:14:02.906Z,60.12
2023-04-20T09:16:29.745Z,58.74
2023-04-20T09:18:57.520Z,57.32
2023-04-20T09:21:28.162Z,56.65
2023-04-20T09:24:03.889Z,56.49
2023-04-20T09:26:34.927Z,55.07
2023-04-20T09:29:02.897Z,54.89
2023-04-20T09:31:29.606Z,55.49
2023-04-20T09:34:00.839Z,55.51
2023-04-20T09:36:50.276Z,55.92
2023-04-20T09:39:18.751Z,55.45
2023-04-20T09:41:50.217Z,53.05
2023-04-20T09:44:18.439Z,54.49
2023-04-20T09:46:46.803Z,54.36
2023-04-20T09:49:16.247Z,53.70
2023-04-20T09:51:48.822Z,54.44
2023-04-20T09:54:16.560Z,55.11
2023-04-20T09:56:45.894Z,53.05
2023-04-20T09:59:14.452Z,53.83
2023-04-20T10:01:41.253Z,53.35
2023-04-20T10:04:11.159Z,51.82
2023-04-20T10:06:38.663Z,52.17
2023-04-20T10:09:07.812Z,50.24
2023-04-20T10:11:45.214Z,50.54
2023-04-20T10:14:26.211Z,49.42
2023-04-20T10:17:03.422Z,49.18
2023-04-20T10:19:40.361Z,49.58
2023-04-20T10:22:08.383Z,51.27
2023-04-20T10:24:38.337Z,51.73
2023-04-20T10:27:19.419Z,52.34
2023-04-20T10:29:46.594Z,52.44
2023-04-20T10:32:27.729Z,52.98
2023-04-20T10:35:06.641Z,54.04
2023-04-20T10:37:33.922Z,52.57
2023-04-20T10:40:01.178Z,52.18
2023-04-20T10:42:29.749Z,52.31
2023-04-20T10:44:56.477Z,52.34
2023-04-20T10:47:31.673Z,53.05
2023-04-20T10:50:08.437Z,53.47
2023-04-20T10:52:36.778Z,53.51
2023-04-20T10:55:05.149Z,53.31
2023-04-20T10:57:31.867Z,53.35
2023-04-20T10:59:58.536Z,52.81
2023-04-20T11:02:25.866Z,53.22
2023-04-20T11:04:53.426Z,53.68
2023-04-20T11:07:20.975Z,53.42
2023-04-20T11:09:55.801Z,53.88
2023-04-20T11:12:22.485Z,54.38
2023-04-20T11:14:58.081Z,55.00
2023-04-20T11:17:34.882Z,55.12
2023-04-20T11:20:15.502Z,55.66
2023-04-20T11:22:57.857Z,55.77
2023-04-20T11:25:24.534Z,56.25
2023-04-20T11:27:51.358Z,56.65
2023-04-20T11:30:18.011Z,57.56
2023-04-20T11:32:54.439Z,57.84
2023-04-20T11:35:21.545Z,57.79
2023-04-20T11:37:51.450Z,57.75
2023-04-20T11:40:18.452Z,57.47
2023-04-20T11:42:46.314Z,57.88
2023-04-20T11:45:14.517Z,57.61
2023-04-20T11:47:41.425Z,58.70
2023-04-20T11:50:10.317Z,58.04
2023-04-20T11:52:38.334Z,57.33
2023-04-20T11:55:06.115Z,57.79
2023-04-20T11:57:33.444Z,55.84
2023-04-20T12:00:01.063Z,57.06
2023-04-20T12:02:27.818Z,56.63
2023-04-20T12:04:54.641Z,57.05
2023-04-20T12:07:22.352Z,57.74
2023-04-20T12:09:49.522Z,57.09
2023-04-20T12:12:16.222Z,57.50
2023-04-20T12:14:43.025Z,57.42
2023-04-20T12:17:09.797Z,55.86
2023-04-20T12:19:36.623Z,56.10
2023-04-20T12:22:03.535Z,56.07
2023-04-20T12:24:30.188Z,55.88
2023-04-20T12:26:58.161Z,55.41
2023-04-20T12:29:24.916Z,55.55
2023-04-20T12:31:51.628Z,54.47
2023-04-20T12:34:18.530Z,55.01
2023-04-20T12:36:45.545Z,53.71
2023-04-20T12:39:14.538Z,53.50
2023-04-20T12:41:41.528Z,53.19
2023-04-20T12:44:10.009Z,54.45
2023-04-20T12:46:37.912Z,53.15
2023-04-20T12:49:04.637Z,52.86
2023-04-20T12:51:32.190Z,53.26
2023-04-20T12:53:58.833Z,53.47
2023-04-20T12:56:25.810Z,53.58
2023-04-20T12:58:52.891Z,53.15
2023-04-20T13:01:19.615Z,52.69
2023-04-20T13:03:52.873Z,53.07
2023-04-20T13:06:19.751Z,51.75
2023-04-20T13:08:46.998Z,52.57
2023-04-20T13:11:17.998Z,52.57
2023-04-20T13:13:47.553Z,51.51
2023-04-20T13:16:14.649Z,50.18
2023-04-20T13:18:41.427Z,50.24
2023-04-20T13:21:08.458Z,50.09
2023-04-20T13:23:35.072Z,48.71
2023-04-20T13:26:02.060Z,49.12
2023-04-20T13:28:29.860Z,49.12
2023-04-20T13:30:57.671Z,49.37
2023-04-20T13:33:24.452Z,48.80
2023-04-20T13:35:51.504Z,48.92
2023-04-20T13:38:18.486Z,48.20
2023-04-20T13:40:46.374Z,49.22
2023-04-20T13:43:15.761Z,49.38
2023-04-20T13:45:42.748Z,48.27
2023-04-20T13:48:09.519Z,47.84
2023-04-20T13:50:36.568Z,48.76
2023-04-20T13:53:03.361Z,47.93
2023-04-20T13:55:30.920Z,47.00
2023-04-20T13:57:57.607Z,47.59
2023-04-20T14:00:26.130Z,48.82
2023-04-20T14:02:53.150Z,48.23
2023-04-20T14:05:19.914Z,48.91
2023-04-20T14:07:46.573Z,48.08
2023-04-20T14:10:16.534Z,48.17
2023-04-20T14:12:46.811Z,46.38
2023-04-20T14:15:16.623Z,47.58
2023-04-20T14:17:47.139Z,47.92
2023-04-20T14:20:14.855Z,47.81
2023-04-20T14:22:43.934Z,47.16
2023-04-20T14:25:11.054Z,46.79
2023-04-20T14:27:37.857Z,48.13
2023-04-20T14:30:04.973Z,48.32
2023-04-20T14:32:31.726Z,48.04
2023-04-20T14:34:58.989Z,47.79
2023-04-20T14:37:27.489Z,48.43
2023-04-20T14:39:54.343Z,48.38
2023-04-20T14:42:21.865Z,48.92
2023-04-20T14:44:49.526Z,47.80
2023-04-20T14:47:16.603Z,47.66
2023-04-20T14:49:50.701Z,47.77
2023-04-20T14:52:19.101Z,46.92
2023-04-20T14:54:45.998Z,46.15
2023-04-20T14:57:18.885Z,46.64
2023-04-20T14:59:50.038Z,47.13
2023-04-20T15:02:18.612Z,47.01
2023-04-20T15:04:46.393Z,46.44
2023-04-20T15:07:15.384Z,45.81
2023-04-20T15:09:46.561Z,46.21
2023-04-20T15:12:21.783Z,45.75
2023-04-20T15:14:49.639Z,45.79
2023-04-20T15:17:16.432Z,45.87
2023-04-20T15:19:46.209Z,45.33
2023-04-20T15:22:15.402Z,44.96
2023-04-20T15:24:42.737Z,45.79
2023-04-20T15:27:10.409Z,45.63
2023-04-20T15:29:37.417Z,46.03
2023-04-20T15:32:05.177Z,46.78
2023-04-20T15:34:31.918Z,46.42
2023-04-20T15:36:58.600Z,46.47
2023-04-20T15:39:26.505Z,46.51
2023-04-20T15:41:53.175Z,44.78
2023-04-20T15:44:20.031Z,45.20
2023-04-20T15:46:48.024Z,44.85
2023-04-20T15:49:23.108Z,43.44
2023-04-20T15:51:49.837Z,43.58
2023-04-20T15:54:16.721Z,42.45
2023-04-20T15:56:44.301Z,42.56
2023-04-20T15:59:10.900Z,41.84
2023-04-20T16:01:37.845Z,41.73
2023-04-20T16:04:04.839Z,41.41
2023-04-20T16:06:31.759Z,41.63
2023-04-20T16:08:58.644Z,41.75
2023-04-20T16:11:25.419Z,42.44
2023-04-20T16:13:52.006Z,42.36
2023-04-20T16:16:18.960Z,42.60
2023-04-20T16:18:45.783Z,42.08
2023-04-20T16:21:14.688Z,41.72
2023-04-20T16:23:41.272Z,41.48
2023-04-20T16:26:07.914Z,41.26
2023-04-20T16:28:34.645Z,41.86
2023-04-20T16:31:01.447Z,41.62
2023-04-20T16:33:29.755Z,41.98
2023-04-20T16:35:58.303Z,42.56
2023-04-20T16:38:26.083Z,42.76
2023-04-20T16:40:54.858Z,42.92
2023-04-20T16:43:23.753Z,42.92
2023-04-20T16:45:53.269Z,42.77
2023-04-20T16:48:20.006Z,43.27
2023-04-20T16:50:46.826Z,43.20
2023-04-20T16:53:17.621Z,43.48
2023-04-20T16:55:47.986Z,43.51
2023-04-20T16:58:14.767Z,43.48
2023-04-20T17:00:42.103Z,43.87
2023-04-20T17:03:11.174Z,44.23
2023-04-20T17:05:42.051Z,44.45
2023-04-20T17:08:09.797Z,44.92
2023-04-20T17:10:38.577Z,44.89
2023-04-20T17:13:05.550Z,45.27
2023-04-20T17:15:32.335Z,45.50
2023-04-20T17:18:00.441Z,46.15
2023-04-20T17:20:27.054Z,46.16
2023-04-20T17:22:55.929Z,46.82
2023-04-20T17:25:27.211Z,47.11
2023-04-20T17:27:53.904Z,47.32
2023-04-20T17:30:23.277Z,47.48
2023-04-20T17:32:49.914Z,47.63
2023-04-20T17:35:16.528Z,48.12
2023-04-20T17:37:47.070Z,48.17
2023-04-20T17:40:16.458Z,48.26
2023-04-20T17:42:45.320Z,48.78
2023-04-20T17:45:16.014Z,49.52
2023-04-20T17:47:44.490Z,49.43
2023-04-20T17:50:16.630Z,50.07
2023-04-20T17:52:46.305Z,50.58
2023-04-20T17:55:16.372Z,50.57
2023-04-20T17:57:45.699Z,51.25
2023-04-20T18:00:14.802Z,51.29
2023-04-20T18:02:42.309Z,51.42
2023-04-20T18:05:09.471Z,51.87
2023-04-20T18:07:36.377Z,52.54
2023-04-20T18:10:04.170Z,53.17
2023-04-20T18:12:30.948Z,53.62
2023-04-20T18:14:57.553Z,53.71
2023-04-20T18:17:24.251Z,53.99
2023-04-20T18:19:51.407Z,54.23
2023-04-20T18:22:18.188Z,54.58
2023-04-20T18:24:45.976Z,55.02
2023-04-20T18:27:15.253Z,55.15
2023-04-20T18:29:42.592Z,55.67
2023-04-20T18:32:09.370Z,56.00
2023-04-20T18:34:36.873Z,56.26
2023-04-20T18:37:04.600Z,56.57
2023-04-20T18:39:31.314Z,57.21
2023-04-20T18:41:58.174Z,57.38
2023-04-20T18:44:25.961Z,57.93
2023-04-20T18:46:54.136Z,57.91
2023-04-20T18:49:20.958Z,57.73
2023-04-20T18:51:47.782Z,58.15
2023-04-20T18:54:14.515Z,58.32
2023-04-20T18:56:41.266Z,58.96
2023-04-20T18:59:09.150Z,58.87
2023-04-20T19:01:40.469Z,59.18
2023-04-20T19:04:11.055Z,59.72
2023-04-20T19:06:37.913Z,59.93
2023-04-20T19:09:07.293Z,59.74
2023-04-20T19:11:37.880Z,60.70
2023-04-20T19:14:04.453Z,60.49
2023-04-20T19:16:32.302Z,60.80
2023-04-20T19:18:59.420Z,60.49
2023-04-20T19:21:27.015Z,60.87
2023-04-20T19:23:53.825Z,60.63
2023-04-20T19:26:21.650Z,60.87
2023-04-20T19:28:48.346Z,60.67
2023-04-20T19:31:16.281Z,61.30
2023-04-20T19:33:46.169Z,61.12
2023-04-20T19:36:15.881Z,61.28
2023-04-20T19:38:46.495Z,61.96
2023-04-20T19:41:16.112Z,61.57
2023-04-20T19:43:46.905Z,61.84
2023-04-20T19:46:17.090Z,62.15
2023-04-20T19:48:47.696Z,62.46
2023-04-20T19:51:17.332Z,62.83
2023-04-20T19:53:47.018Z,63.15
2023-04-20T19:56:15.437Z,64.27
2023-04-20T19:58:45.073Z,64.61
2023-04-20T20:01:14.225Z,64.45
2023-04-20T20:03:43.383Z,65.22
2023-04-20T20:06:10.412Z,64.96
2023-04-20T20:08:37.679Z,65.42
2023-04-20T20:11:04.597Z,65.41
2023-04-20T20:13:31.412Z,66.22
2023-04-20T20:15:59.059Z,66.32
2023-04-20T20:18:26.583Z,66.20
2023-04-20T20:20:54.302Z,66.63
2023-04-20T20:23:24.049Z,66.21
2023-04-20T20:25:50.643Z,66.77
2023-04-20T20:28:17.318Z,67.62
2023-04-20T20:30:46.801Z,67.13
2023-04-20T20:33:16.540Z,67.84
2023-04-20T20:35:45.952Z,67.64
2023-04-20T20:38:12.748Z,67.66
2023-04-20T20:40:44.847Z,68.18
2023-04-20T20:43:16.317Z,68.01
2023-04-20T20:45:47.417Z,68.76
2023-04-20T20:48:17.118Z,69.47
2023-04-20T20:50:46.925Z,68.93
2023-04-20T20:53:20.373Z,69.37
2023-04-20T20:55:47.023Z,69.33
2023-04-20T20:58:17.007Z,70.05
2023-04-20T21:00:47.217Z,69.99
2023-04-20T21:03:17.130Z,70.15
2023-04-20T21:05:47.212Z,70.41
2023-04-20T21:08:17.373Z,71.13
2023-04-20T21:10:44.161Z,70.44
2023-04-20T21:13:10.946Z,70.83
2023-04-20T21:15:37.621Z,70.58
2023-04-20T21:18:04.570Z,70.79
2023-04-20T21:20:31.259Z,71.75
2023-04-20T21:22:57.930Z,71.47
2023-04-20T21:25:25.540Z,71.83
2023-04-20T21:27:52.253Z,71.72
2023-04-20T21:30:18.891Z,72.26
2023-04-20T21:32:45.532Z,72.33
2023-04-20T21:35:14.569Z,72.48
2023-04-20T21:37:45.162Z,72.63
2023-04-20T21:40:12.833Z,72.58
2023-04-20T21:42:39.568Z,72.98
2023-04-20T21:45:06.838Z,73.01
2023-04-20T21:47:33.415Z,72.71
2023-04-20T21:50:00.099Z,73.56
2023-04-20T21:52:27.087Z,73.03
2023-04-20T21:54:53.797Z,73.48
2023-04-20T21:57:20.430Z,73.99
2023-04-20T21:59:47.019Z,73.44
2023-04-20T22:02:16.727Z,73.92
2023-04-20T22:04:46.561Z,74.06
2023-04-20T22:07:17.646Z,74.13
2023-04-20T22:09:47.492Z,74.37
2023-04-20T22:12:32.292Z,74.47
2023-04-20T22:15:03.106Z,74.19
2023-04-20T22:17:31.187Z,74.48
2023-04-20T22:19:57.752Z,74.83
2023-04-20T22:22:24.461Z,75.17
2023-04-20T22:24:52.178Z,75.52
2023-04-20T22:27:18.828Z,75.02
2023-04-20T22:29:45.566Z,75.33
2023-04-20T22:32:17.034Z,74.85
2023-04-20T22:34:46.834Z,75.22
2023-04-20T22:37:16.801Z,75.34
2023-04-20T22:39:45.623Z,75.40
2023-04-20T22:42:14.927Z,75.89
2023-04-20T22:44:41.769Z,75.64
2023-04-20T22:47:08.763Z,76.32
2023-04-20T22:49:35.953Z,75.95
2023-04-20T22:52:02.784Z,76.47
2023-04-20T22:54:30.277Z,76.18
2023-04-20T22:56:57.278Z,76.38
2023-04-20T22:59:24.056Z,75.88
2023-04-20T23:01:50.791Z,76.13
2023-04-20T23:04:17.632Z,76.01
2023-04-20T23:06:45.461Z,76.40
2023-04-20T23:09:14.039Z,76.17
2023-04-20T23:11:41.142Z,76.73
2023-04-20T23:14:08.865Z,76.72
2023-04-20T23:16:35.767Z,76.91
2023-04-20T23:19:02.581Z,76.34
2023-04-20T23:21:29.328Z,76.47
2023-04-20T23:23:57.754Z,76.61
2023-04-20T23:26:25.111Z,76.65
2023-04-20T23:28:52.778Z,76.80
2023-04-20T23:31:20.261Z,76.63
2023-04-20T23:33:47.864Z,76.87
2023-04-20T23:36:15.380Z,76.76
2023-04-20T23:38:44.993Z,76.65
2023-04-20T23:41:16.476Z,76.55
2023-04-20T23:43:46.325Z,76.84
2023-04-20T23:46:15.803Z,76.92
2023-04-20T23:48:44.990Z,77.01
2023-04-20T23:51:11.864Z,77.17
2023-04-20T23:53:39.689Z,77.02
2023-04-20T23:56:06.788Z,76.90
2023-04-20T23:58:33.404Z,76.44
